sensor_id;sensor_type;location;lat;lon;timestamp;P1;durP1;ratioP1;P2;durP2;ratioP2
62798;SDS011;48842;51.046;13.796;2024-02-16T00:02:16;10.40;;;8.00;;
62798;SDS011;48842;51.046;13.796;2024-02-16T00:04:41;11.43;;;8.10;;
62798;SDS011;48842;51.046;13.796;2024-02-16T00:07:06;11.40;;;7.57;;
62798;SDS011;48842;51.046;13.796;2024-02-16T00:09:31;15.73;;;10.40;;
62798;SDS011;48842;51.046;13.796;2024-02-16T00:11:58;10.00;;;8.20;;
62798;SDS011;48842;51.046;13.796;2024-02-16T00:14:23;12.13;;;8.30;;
62798;SDS011;48842;51.046;13.796;2024-02-16T00:16:48;13.73;;;8.30;;
62798;SDS011;48842;51.046;13.796;2024-02-16T00:19:14;13.97;;;8.70;;
62798;SDS011;48842;51.046;13.796;2024-02-16T00:21:39;8.80;;;7.67;;
62798;SDS011;48842;51.046;13.796;2024-02-16T00:24:07;12.00;;;7.20;;
62798;SDS011;48842;51.046;13.796;2024-02-16T00:26:32;13.33;;;8.87;;
62798;SDS011;48842;51.046;13.796;2024-02-16T00:28:57;11.53;;;7.63;;
62798;SDS011;48842;51.046;13.796;2024-02-16T00:31:22;10.80;;;8.10;;
62798;SDS011;48842;51.046;13.796;2024-02-16T00:33:48;11.07;;;7.50;;
62798;SDS011;48842;51.046;13.796;2024-02-16T00:36:13;10.23;;;6.77;;
62798;SDS011;48842;51.046;13.796;2024-02-16T00:38:39;10.57;;;8.00;;
62798;SDS011;48842;51.046;13.796;2024-02-16T00:41:04;12.90;;;7.93;;
62798;SDS011;48842;51.046;13.796;2024-02-16T00:43:29;9.40;;;7.77;;
62798;SDS011;48842;51.046;13.796;2024-02-16T00:45:55;10.37;;;8.60;;
62798;SDS011;48842;51.046;13.796;2024-02-16T00:48:21;10.60;;;7.00;;
62798;SDS011;48842;51.046;13.796;2024-02-16T00:50:46;9.97;;;7.77;;
62798;SDS011;48842;51.046;13.796;2024-02-16T00:53:12;12.07;;;7.30;;
62798;SDS011;48842;51.046;13.796;2024-02-16T00:55:37;9.63;;;7.40;;
62798;SDS011;48842;51.046;13.796;2024-02-16T00:58:03;9.27;;;7.80;;
62798;SDS011;48842;51.046;13.796;2024-02-16T01:00:28;10.00;;;7.50;;
62798;SDS011;48842;51.046;13.796;2024-02-16T01:02:54;8.30;;;6.93;;
62798;SDS011;48842;51.046;13.796;2024-02-16T01:05:19;13.23;;;7.60;;
62798;SDS011;48842;51.046;13.796;2024-02-16T01:07:44;10.40;;;8.13;;
62798;SDS011;48842;51.046;13.796;2024-02-16T01:10:10;11.60;;;8.10;;
62798;SDS011;48842;51.046;13.796;2024-02-16T01:12:37;11.60;;;8.50;;
62798;SDS011;48842;51.046;13.796;2024-02-16T01:15:02;12.07;;;8.70;;
62798;SDS011;48842;51.046;13.796;2024-02-16T01:17:27;11.93;;;8.50;;
62798;SDS011;48842;51.046;13.796;2024-02-16T01:19:54;14.20;;;9.20;;
62798;SDS011;48842;51.046;13.796;2024-02-16T01:22:19;12.87;;;8.70;;
62798;SDS011;48842;51.046;13.796;2024-02-16T01:24:44;11.17;;;8.90;;
62798;SDS011;48842;51.046;13.796;2024-02-16T01:27:10;14.27;;;9.33;;
62798;SDS011;48842;51.046;13.796;2024-02-16T01:29:36;19.47;;;9.67;;
62798;SDS011;48842;51.046;13.796;2024-02-16T01:32:01;13.60;;;10.70;;
62798;SDS011;48842;51.046;13.796;2024-02-16T01:34:28;16.17;;;11.10;;
62798;SDS011;48842;51.046;13.796;2024-02-16T01:36:55;15.60;;;10.83;;
62798;SDS011;48842;51.046;13.796;2024-02-16T01:39:20;17.20;;;11.50;;
62798;SDS011;48842;51.046;13.796;2024-02-16T01:41:45;32.93;;;10.60;;
62798;SDS011;48842;51.046;13.796;2024-02-16T01:44:11;14.60;;;10.60;;
62798;SDS011;48842;51.046;13.796;2024-02-16T01:46:36;12.67;;;10.13;;
62798;SDS011;48842;51.046;13.796;2024-02-16T01:49:01;14.60;;;10.33;;
62798;SDS011;48842;51.046;13.796;2024-02-16T01:51:27;14.60;;;11.50;;
62798;SDS011;48842;51.046;13.796;2024-02-16T01:53:53;14.90;;;10.93;;
62798;SDS011;48842;51.046;13.796;2024-02-16T01:56:20;17.13;;;11.40;;
62798;SDS011;48842;51.046;13.796;2024-02-16T01:58:47;15.73;;;11.40;;
62798;SDS011;48842;51.046;13.796;2024-02-16T02:01:12;14.23;;;10.40;;
62798;SDS011;48842;51.046;13.796;2024-02-16T02:03:38;19.17;;;10.40;;
62798;SDS011;48842;51.046;13.796;2024-02-16T02:06:03;11.80;;;9.90;;
62798;SDS011;48842;51.046;13.796;2024-02-16T02:08:28;13.23;;;10.27;;
62798;SDS011;48842;51.046;13.796;2024-02-16T02:10:53;15.97;;;11.63;;
62798;SDS011;48842;51.046;13.796;2024-02-16T02:13:19;15.37;;;11.00;;
62798;SDS011;48842;51.046;13.796;2024-02-16T02:15:46;16.87;;;11.03;;
62798;SDS011;48842;51.046;13.796;2024-02-16T02:18:12;16.43;;;11.00;;
62798;SDS011;48842;51.046;13.796;2024-02-16T02:20:37;16.40;;;11.30;;
62798;SDS011;48842;51.046;13.796;2024-02-16T02:23:02;16.27;;;11.80;;
62798;SDS011;48842;51.046;13.796;2024-02-16T02:25:29;14.83;;;11.20;;
62798;SDS011;48842;51.046;13.796;2024-02-16T02:27:54;15.40;;;11.03;;
62798;SDS011;48842;51.046;13.796;2024-02-16T02:30:20;15.27;;;11.60;;
62798;SDS011;48842;51.046;13.796;2024-02-16T02:32:46;16.23;;;11.63;;
62798;SDS011;48842;51.046;13.796;2024-02-16T02:35:11;13.90;;;10.73;;
62798;SDS011;48842;51.046;13.796;2024-02-16T02:37:39;19.70;;;11.10;;
62798;SDS011;48842;51.046;13.796;2024-02-16T02:40:04;14.83;;;11.17;;
62798;SDS011;48842;51.046;13.796;2024-02-16T02:42:33;20.20;;;11.47;;
62798;SDS011;48842;51.046;13.796;2024-02-16T02:44:58;15.67;;;11.00;;
62798;SDS011;48842;51.046;13.796;2024-02-16T02:47:23;14.07;;;11.10;;
62798;SDS011;48842;51.046;13.796;2024-02-16T02:49:48;14.80;;;11.17;;
62798;SDS011;48842;51.046;13.796;2024-02-16T02:52:14;13.33;;;10.63;;
62798;SDS011;48842;51.046;13.796;2024-02-16T02:54:39;16.23;;;12.80;;
62798;SDS011;48842;51.046;13.796;2024-02-16T02:57:04;16.30;;;12.33;;
62798;SDS011;48842;51.046;13.796;2024-02-16T02:59:29;17.40;;;11.30;;
62798;SDS011;48842;51.046;13.796;2024-02-16T03:01:55;16.00;;;11.60;;
62798;SDS011;48842;51.046;13.796;2024-02-16T03:04:20;18.87;;;13.43;;
62798;SDS011;48842;51.046;13.796;2024-02-16T03:06:45;21.43;;;12.27;;
62798;SDS011;48842;51.046;13.796;2024-02-16T03:09:11;22.60;;;13.97;;
62798;SDS011;48842;51.046;13.796;2024-02-16T03:11:37;19.00;;;14.03;;
62798;SDS011;48842;51.046;13.796;2024-02-16T03:14:03;18.83;;;13.77;;
62798;SDS011;48842;51.046;13.796;2024-02-16T03:16:30;14.53;;;12.87;;
62798;SDS011;48842;51.046;13.796;2024-02-16T03:18:55;19.43;;;14.73;;
62798;SDS011;48842;51.046;13.796;2024-02-16T03:21:20;17.60;;;13.07;;
62798;SDS011;48842;51.046;13.796;2024-02-16T03:23:46;19.77;;;14.10;;
62798;SDS011;48842;51.046;13.796;2024-02-16T03:26:15;19.70;;;15.50;;
62798;SDS011;48842;51.046;13.796;2024-02-16T03:28:40;17.17;;;12.20;;
62798;SDS011;48842;51.046;13.796;2024-02-16T03:31:06;17.53;;;12.77;;
62798;SDS011;48842;51.046;13.796;2024-02-16T03:33:32;18.50;;;14.30;;
62798;SDS011;48842;51.046;13.796;2024-02-16T03:35:58;15.67;;;13.43;;
62798;SDS011;48842;51.046;13.796;2024-02-16T03:38:24;22.10;;;14.00;;
62798;SDS011;48842;51.046;13.796;2024-02-16T03:40:50;16.80;;;13.17;;
62798;SDS011;48842;51.046;13.796;2024-02-16T03:43:15;20.80;;;15.67;;
62798;SDS011;48842;51.046;13.796;2024-02-16T03:45:40;18.77;;;13.80;;
62798;SDS011;48842;51.046;13.796;2024-02-16T03:48:06;16.77;;;13.20;;
62798;SDS011;48842;51.046;13.796;2024-02-16T03:50:31;18.63;;;14.50;;
62798;SDS011;48842;51.046;13.796;2024-02-16T03:52:56;22.30;;;16.10;;
62798;SDS011;48842;51.046;13.796;2024-02-16T03:55:22;19.90;;;15.00;;
62798;SDS011;48842;51.046;13.796;2024-02-16T03:57:47;20.00;;;14.60;;
62798;SDS011;48842;51.046;13.796;2024-02-16T04:00:12;19.80;;;14.97;;
62798;SDS011;48842;51.046;13.796;2024-02-16T04:02:39;18.20;;;13.90;;
62798;SDS011;48842;51.046;13.796;2024-02-16T04:05:04;21.00;;;15.00;;
62798;SDS011;48842;51.046;13.796;2024-02-16T04:07:30;21.53;;;15.97;;
62798;SDS011;48842;51.046;13.796;2024-02-16T04:09:55;19.97;;;15.50;;
62798;SDS011;48842;51.046;13.796;2024-02-16T04:12:20;20.83;;;16.53;;
62798;SDS011;48842;51.046;13.796;2024-02-16T04:14:46;21.57;;;14.70;;
62798;SDS011;48842;51.046;13.796;2024-02-16T04:17:11;25.37;;;17.70;;
62798;SDS011;48842;51.046;13.796;2024-02-16T04:19:37;22.20;;;16.40;;
62798;SDS011;48842;51.046;13.796;2024-02-16T04:22:02;21.40;;;16.17;;
62798;SDS011;48842;51.046;13.796;2024-02-16T04:24:28;19.90;;;14.90;;
62798;SDS011;48842;51.046;13.796;2024-02-16T04:26:54;18.40;;;14.80;;
62798;SDS011;48842;51.046;13.796;2024-02-16T04:29:19;18.50;;;15.10;;
62798;SDS011;48842;51.046;13.796;2024-02-16T04:31:44;19.57;;;15.57;;
62798;SDS011;48842;51.046;13.796;2024-02-16T04:34:11;18.10;;;14.63;;
62798;SDS011;48842;51.046;13.796;2024-02-16T04:36:37;20.83;;;15.43;;
62798;SDS011;48842;51.046;13.796;2024-02-16T04:39:02;19.73;;;15.93;;
62798;SDS011;48842;51.046;13.796;2024-02-16T04:41:28;20.67;;;14.93;;
62798;SDS011;48842;51.046;13.796;2024-02-16T04:43:54;19.30;;;14.80;;
62798;SDS011;48842;51.046;13.796;2024-02-16T04:46:19;18.30;;;14.70;;
62798;SDS011;48842;51.046;13.796;2024-02-16T04:48:45;19.83;;;15.77;;
62798;SDS011;48842;51.046;13.796;2024-02-16T04:51:10;17.43;;;14.50;;
62798;SDS011;48842;51.046;13.796;2024-02-16T04:53:36;19.20;;;15.93;;
62798;SDS011;48842;51.046;13.796;2024-02-16T04:56:01;18.40;;;15.37;;
62798;SDS011;48842;51.046;13.796;2024-02-16T04:58:29;19.40;;;15.07;;
62798;SDS011;48842;51.046;13.796;2024-02-16T05:00:55;22.03;;;15.00;;
62798;SDS011;48842;51.046;13.796;2024-02-16T05:03:20;21.80;;;15.90;;
62798;SDS011;48842;51.046;13.796;2024-02-16T05:05:45;19.03;;;14.43;;
62798;SDS011;48842;51.046;13.796;2024-02-16T05:08:11;19.53;;;15.43;;
62798;SDS011;48842;51.046;13.796;2024-02-16T05:10:36;21.77;;;16.63;;
62798;SDS011;48842;51.046;13.796;2024-02-16T05:13:02;22.90;;;17.10;;
62798;SDS011;48842;51.046;13.796;2024-02-16T05:15:28;20.67;;;16.23;;
62798;SDS011;48842;51.046;13.796;2024-02-16T05:17:53;20.63;;;16.60;;
62798;SDS011;48842;51.046;13.796;2024-02-16T05:20:18;18.63;;;15.80;;
62798;SDS011;48842;51.046;13.796;2024-02-16T05:22:44;22.03;;;15.97;;
62798;SDS011;48842;51.046;13.796;2024-02-16T05:25:14;18.77;;;14.50;;
62798;SDS011;48842;51.046;13.796;2024-02-16T05:27:40;19.30;;;16.20;;
62798;SDS011;48842;51.046;13.796;2024-02-16T05:30:05;21.30;;;15.13;;
62798;SDS011;48842;51.046;13.796;2024-02-16T05:32:34;19.83;;;15.50;;
62798;SDS011;48842;51.046;13.796;2024-02-16T05:35:00;18.47;;;14.73;;
62798;SDS011;48842;51.046;13.796;2024-02-16T05:37:30;21.30;;;15.43;;
62798;SDS011;48842;51.046;13.796;2024-02-16T05:39:59;22.00;;;16.27;;
62798;SDS011;48842;51.046;13.796;2024-02-16T05:42:33;19.13;;;15.30;;
62798;SDS011;48842;51.046;13.796;2024-02-16T05:44:59;22.17;;;15.80;;
62798;SDS011;48842;51.046;13.796;2024-02-16T05:47:25;19.20;;;15.73;;
62798;SDS011;48842;51.046;13.796;2024-02-16T05:49:50;20.10;;;15.87;;
62798;SDS011;48842;51.046;13.796;2024-02-16T05:52:15;18.97;;;15.40;;
62798;SDS011;48842;51.046;13.796;2024-02-16T05:54:44;23.63;;;16.90;;
62798;SDS011;48842;51.046;13.796;2024-02-16T05:57:10;26.13;;;16.70;;
62798;SDS011;48842;51.046;13.796;2024-02-16T05:59:35;24.07;;;17.37;;
62798;SDS011;48842;51.046;13.796;2024-02-16T06:02:00;23.27;;;17.27;;
62798;SDS011;48842;51.046;13.796;2024-02-16T06:04:25;26.33;;;16.80;;
62798;SDS011;48842;51.046;13.796;2024-02-16T06:06:51;24.87;;;16.40;;
62798;SDS011;48842;51.046;13.796;2024-02-16T06:09:18;23.20;;;16.00;;
62798;SDS011;48842;51.046;13.796;2024-02-16T06:11:44;22.70;;;16.73;;
62798;SDS011;48842;51.046;13.796;2024-02-16T06:14:09;27.83;;;17.60;;
62798;SDS011;48842;51.046;13.796;2024-02-16T06:16:34;28.50;;;16.67;;
62798;SDS011;48842;51.046;13.796;2024-02-16T06:18:59;19.80;;;15.93;;
62798;SDS011;48842;51.046;13.796;2024-02-16T06:21:25;22.63;;;17.30;;
62798;SDS011;48842;51.046;13.796;2024-02-16T06:23:50;21.80;;;16.97;;
62798;SDS011;48842;51.046;13.796;2024-02-16T06:26:15;21.63;;;16.47;;
62798;SDS011;48842;51.046;13.796;2024-02-16T06:28:40;24.57;;;17.50;;
62798;SDS011;48842;51.046;13.796;2024-02-16T06:31:06;23.47;;;16.77;;
62798;SDS011;48842;51.046;13.796;2024-02-16T06:33:31;22.30;;;17.03;;
62798;SDS011;48842;51.046;13.796;2024-02-16T06:35:56;27.40;;;18.90;;
62798;SDS011;48842;51.046;13.796;2024-02-16T06:38:23;26.63;;;17.80;;
62798;SDS011;48842;51.046;13.796;2024-02-16T06:40:48;39.13;;;17.83;;
62798;SDS011;48842;51.046;13.796;2024-02-16T06:43:13;23.50;;;16.67;;
62798;SDS011;48842;51.046;13.796;2024-02-16T06:45:38;25.70;;;19.07;;
62798;SDS011;48842;51.046;13.796;2024-02-16T06:48:04;27.17;;;17.90;;
62798;SDS011;48842;51.046;13.796;2024-02-16T06:50:31;24.00;;;18.97;;
62798;SDS011;48842;51.046;13.796;2024-02-16T06:52:56;23.03;;;17.47;;
62798;SDS011;48842;51.046;13.796;2024-02-16T06:55:21;24.00;;;18.57;;
62798;SDS011;48842;51.046;13.796;2024-02-16T06:57:47;22.00;;;18.10;;
62798;SDS011;48842;51.046;13.796;2024-02-16T07:00:12;23.80;;;18.50;;
62798;SDS011;48842;51.046;13.796;2024-02-16T07:02:38;25.97;;;18.03;;
62798;SDS011;48842;51.046;13.796;2024-02-16T07:05:03;25.37;;;18.90;;
62798;SDS011;48842;51.046;13.796;2024-02-16T07:07:29;23.33;;;18.67;;
62798;SDS011;48842;51.046;13.796;2024-02-16T07:09:54;22.70;;;16.70;;
62798;SDS011;48842;51.046;13.796;2024-02-16T07:12:20;23.13;;;17.70;;
62798;SDS011;48842;51.046;13.796;2024-02-16T07:14:46;23.53;;;16.67;;
62798;SDS011;48842;51.046;13.796;2024-02-16T07:17:11;28.43;;;19.00;;
62798;SDS011;48842;51.046;13.796;2024-02-16T07:19:37;26.13;;;18.60;;
62798;SDS011;48842;51.046;13.796;2024-02-16T07:22:02;29.80;;;18.63;;
62798;SDS011;48842;51.046;13.796;2024-02-16T07:24:28;24.30;;;18.40;;
62798;SDS011;48842;51.046;13.796;2024-02-16T07:26:53;23.40;;;17.13;;
62798;SDS011;48842;51.046;13.796;2024-02-16T07:29:20;28.50;;;19.70;;
62798;SDS011;48842;51.046;13.796;2024-02-16T07:31:45;23.90;;;18.33;;
62798;SDS011;48842;51.046;13.796;2024-02-16T07:34:10;24.13;;;17.90;;
62798;SDS011;48842;51.046;13.796;2024-02-16T07:36:36;23.83;;;17.30;;
62798;SDS011;48842;51.046;13.796;2024-02-16T07:39:01;26.07;;;18.97;;
62798;SDS011;48842;51.046;13.796;2024-02-16T07:41:29;25.43;;;18.27;;
62798;SDS011;48842;51.046;13.796;2024-02-16T07:43:55;32.90;;;18.03;;
62798;SDS011;48842;51.046;13.796;2024-02-16T07:46:20;26.43;;;17.97;;
62798;SDS011;48842;51.046;13.796;2024-02-16T07:48:45;24.30;;;18.37;;
62798;SDS011;48842;51.046;13.796;2024-02-16T07:51:10;23.93;;;17.77;;
62798;SDS011;48842;51.046;13.796;2024-02-16T07:53:36;23.23;;;16.97;;
62798;SDS011;48842;51.046;13.796;2024-02-16T07:56:01;29.77;;;16.23;;
62798;SDS011;48842;51.046;13.796;2024-02-16T07:58:26;28.70;;;18.30;;
62798;SDS011;48842;51.046;13.796;2024-02-16T08:00:51;26.57;;;18.30;;
62798;SDS011;48842;51.046;13.796;2024-02-16T08:03:19;26.10;;;18.30;;
62798;SDS011;48842;51.046;13.796;2024-02-16T08:05:44;25.57;;;19.47;;
62798;SDS011;48842;51.046;13.796;2024-02-16T08:08:09;23.10;;;17.87;;
62798;SDS011;48842;51.046;13.796;2024-02-16T08:10:35;24.20;;;18.43;;
62798;SDS011;48842;51.046;13.796;2024-02-16T08:13:01;25.23;;;18.00;;
62798;SDS011;48842;51.046;13.796;2024-02-16T08:15:26;21.60;;;17.20;;
62798;SDS011;48842;51.046;13.796;2024-02-16T08:17:54;27.00;;;19.07;;
62798;SDS011;48842;51.046;13.796;2024-02-16T08:20:20;24.50;;;16.17;;
62798;SDS011;48842;51.046;13.796;2024-02-16T08:22:45;25.10;;;17.57;;
62798;SDS011;48842;51.046;13.796;2024-02-16T08:25:11;24.80;;;17.67;;
62798;SDS011;48842;51.046;13.796;2024-02-16T08:27:36;23.37;;;16.90;;
62798;SDS011;48842;51.046;13.796;2024-02-16T08:30:03;22.60;;;17.07;;
62798;SDS011;48842;51.046;13.796;2024-02-16T08:32:29;22.57;;;17.00;;
62798;SDS011;48842;51.046;13.796;2024-02-16T08:34:54;22.80;;;18.90;;
62798;SDS011;48842;51.046;13.796;2024-02-16T08:37:21;22.23;;;16.73;;
62798;SDS011;48842;51.046;13.796;2024-02-16T08:39:46;24.30;;;16.17;;
62798;SDS011;48842;51.046;13.796;2024-02-16T08:42:12;24.03;;;18.33;;
62798;SDS011;48842;51.046;13.796;2024-02-16T08:44:37;21.97;;;17.10;;
62798;SDS011;48842;51.046;13.796;2024-02-16T08:47:03;22.83;;;16.50;;
62798;SDS011;48842;51.046;13.796;2024-02-16T08:49:29;24.07;;;18.00;;
62798;SDS011;48842;51.046;13.796;2024-02-16T08:51:55;26.97;;;18.13;;
62798;SDS011;48842;51.046;13.796;2024-02-16T08:54:21;24.43;;;18.13;;
62798;SDS011;48842;51.046;13.796;2024-02-16T08:56:47;22.73;;;18.73;;
62798;SDS011;48842;51.046;13.796;2024-02-16T08:59:13;29.87;;;19.43;;
62798;SDS011;48842;51.046;13.796;2024-02-16T09:01:38;23.60;;;17.87;;
62798;SDS011;48842;51.046;13.796;2024-02-16T09:04:09;21.60;;;16.23;;
62798;SDS011;48842;51.046;13.796;2024-02-16T09:06:35;23.63;;;17.40;;
62798;SDS011;48842;51.046;13.796;2024-02-16T09:09:01;24.23;;;19.20;;
62798;SDS011;48842;51.046;13.796;2024-02-16T09:11:26;20.17;;;16.50;;
62798;SDS011;48842;51.046;13.796;2024-02-16T09:13:52;20.00;;;16.17;;
62798;SDS011;48842;51.046;13.796;2024-02-16T09:16:18;21.80;;;17.03;;
62798;SDS011;48842;51.046;13.796;2024-02-16T09:18:43;20.63;;;16.13;;
62798;SDS011;48842;51.046;13.796;2024-02-16T09:21:09;21.53;;;17.40;;
62798;SDS011;48842;51.046;13.796;2024-02-16T09:23:34;21.93;;;16.47;;
62798;SDS011;48842;51.046;13.796;2024-02-16T09:26:00;24.80;;;18.17;;
62798;SDS011;48842;51.046;13.796;2024-02-16T09:28:29;27.30;;;18.53;;
62798;SDS011;48842;51.046;13.796;2024-02-16T09:30:57;22.87;;;16.77;;
62798;SDS011;48842;51.046;13.796;2024-02-16T09:33:22;21.80;;;16.67;;
62798;SDS011;48842;51.046;13.796;2024-02-16T09:35:50;20.67;;;16.43;;
62798;SDS011;48842;51.046;13.796;2024-02-16T09:38:16;22.70;;;17.37;;
62798;SDS011;48842;51.046;13.796;2024-02-16T09:40:41;20.40;;;16.30;;
62798;SDS011;48842;51.046;13.796;2024-02-16T09:43:07;22.60;;;16.87;;
62798;SDS011;48842;51.046;13.796;2024-02-16T09:45:33;20.37;;;16.20;;
62798;SDS011;48842;51.046;13.796;2024-02-16T09:47:58;21.27;;;17.47;;
62798;SDS011;48842;51.046;13.796;2024-02-16T09:50:24;21.93;;;15.70;;
62798;SDS011;48842;51.046;13.796;2024-02-16T09:52:51;25.00;;;18.03;;
62798;SDS011;48842;51.046;13.796;2024-02-16T09:55:17;21.60;;;17.27;;
62798;SDS011;48842;51.046;13.796;2024-02-16T09:57:43;20.87;;;16.30;;
62798;SDS011;48842;51.046;13.796;2024-02-16T10:00:09;19.27;;;15.83;;
62798;SDS011;48842;51.046;13.796;2024-02-16T10:02:42;20.27;;;15.80;;
62798;SDS011;48842;51.046;13.796;2024-02-16T10:07:40;24.63;;;17.23;;
62798;SDS011;48842;51.046;13.796;2024-02-16T10:12:50;21.60;;;16.40;;
62798;SDS011;48842;51.046;13.796;2024-02-16T10:15:19;21.27;;;16.20;;
62798;SDS011;48842;51.046;13.796;2024-02-16T10:17:46;22.20;;;16.10;;
62798;SDS011;48842;51.046;13.796;2024-02-16T10:20:25;19.33;;;14.73;;
62798;SDS011;48842;51.046;13.796;2024-02-16T10:23:01;20.63;;;15.77;;
62798;SDS011;48842;51.046;13.796;2024-02-16T10:25:31;20.83;;;15.80;;
62798;SDS011;48842;51.046;13.796;2024-02-16T10:27:57;25.70;;;17.00;;
62798;SDS011;48842;51.046;13.796;2024-02-16T10:30:23;23.17;;;16.67;;
62798;SDS011;48842;51.046;13.796;2024-02-16T10:32:54;18.80;;;15.33;;
62798;SDS011;48842;51.046;13.796;2024-02-16T10:35:20;23.30;;;17.33;;
62798;SDS011;48842;51.046;13.796;2024-02-16T10:37:46;21.17;;;17.47;;
62798;SDS011;48842;51.046;13.796;2024-02-16T10:40:12;22.23;;;16.97;;
62798;SDS011;48842;51.046;13.796;2024-02-16T10:42:43;21.63;;;17.57;;
62798;SDS011;48842;51.046;13.796;2024-02-16T10:45:10;26.77;;;19.57;;
62798;SDS011;48842;51.046;13.796;2024-02-16T10:47:38;18.97;;;16.30;;
62798;SDS011;48842;51.046;13.796;2024-02-16T10:50:03;21.47;;;17.50;;
62798;SDS011;48842;51.046;13.796;2024-02-16T10:52:31;22.80;;;16.77;;
62798;SDS011;48842;51.046;13.796;2024-02-16T10:54:57;22.77;;;17.70;;
62798;SDS011;48842;51.046;13.796;2024-02-16T10:57:24;22.63;;;16.87;;
62798;SDS011;48842;51.046;13.796;2024-02-16T10:59:52;21.40;;;17.90;;
62798;SDS011;48842;51.046;13.796;2024-02-16T11:02:19;22.07;;;17.70;;
62798;SDS011;48842;51.046;13.796;2024-02-16T11:04:45;22.37;;;17.20;;
62798;SDS011;48842;51.046;13.796;2024-02-16T11:07:11;18.63;;;16.53;;
62798;SDS011;48842;51.046;13.796;2024-02-16T11:09:40;21.17;;;17.40;;
62798;SDS011;48842;51.046;13.796;2024-02-16T11:12:06;23.23;;;17.70;;
62798;SDS011;48842;51.046;13.796;2024-02-16T11:14:37;23.00;;;18.40;;
62798;SDS011;48842;51.046;13.796;2024-02-16T11:17:11;28.03;;;18.13;;
62798;SDS011;48842;51.046;13.796;2024-02-16T11:19:45;23.73;;;17.70;;
62798;SDS011;48842;51.046;13.796;2024-02-16T11:22:14;21.23;;;17.50;;
62798;SDS011;48842;51.046;13.796;2024-02-16T11:24:47;21.73;;;17.17;;
62798;SDS011;48842;51.046;13.796;2024-02-16T11:27:13;20.23;;;16.60;;
62798;SDS011;48842;51.046;13.796;2024-02-16T11:29:47;19.97;;;16.07;;
62798;SDS011;48842;51.046;13.796;2024-02-16T11:32:13;22.17;;;17.03;;
62798;SDS011;48842;51.046;13.796;2024-02-16T11:34:39;18.20;;;15.60;;
62798;SDS011;48842;51.046;13.796;2024-02-16T11:37:04;21.57;;;16.50;;
62798;SDS011;48842;51.046;13.796;2024-02-16T11:39:30;18.80;;;16.20;;
62798;SDS011;48842;51.046;13.796;2024-02-16T11:44:38;21.37;;;16.13;;
62798;SDS011;48842;51.046;13.796;2024-02-16T11:47:08;20.63;;;16.03;;
62798;SDS011;48842;51.046;13.796;2024-02-16T11:49:37;20.50;;;15.13;;
62798;SDS011;48842;51.046;13.796;2024-02-16T11:52:03;18.80;;;16.77;;
62798;SDS011;48842;51.046;13.796;2024-02-16T11:54:29;17.77;;;15.50;;
62798;SDS011;48842;51.046;13.796;2024-02-16T11:56:55;20.33;;;15.37;;
62798;SDS011;48842;51.046;13.796;2024-02-16T11:59:21;22.10;;;16.53;;
62798;SDS011;48842;51.046;13.796;2024-02-16T12:01:50;21.50;;;15.50;;
62798;SDS011;48842;51.046;13.796;2024-02-16T12:04:22;19.53;;;15.87;;
62798;SDS011;48842;51.046;13.796;2024-02-16T12:06:55;22.10;;;15.70;;
62798;SDS011;48842;51.046;13.796;2024-02-16T12:09:21;20.00;;;17.30;;
62798;SDS011;48842;51.046;13.796;2024-02-16T12:11:48;22.10;;;16.60;;
62798;SDS011;48842;51.046;13.796;2024-02-16T12:14:14;22.10;;;16.40;;
62798;SDS011;48842;51.046;13.796;2024-02-16T12:17:01;21.97;;;17.07;;
62798;SDS011;48842;51.046;13.796;2024-02-16T12:19:26;22.40;;;16.27;;
62798;SDS011;48842;51.046;13.796;2024-02-16T12:21:52;20.10;;;17.30;;
62798;SDS011;48842;51.046;13.796;2024-02-16T12:24:18;17.20;;;15.00;;
62798;SDS011;48842;51.046;13.796;2024-02-16T12:26:44;17.37;;;15.23;;
62798;SDS011;48842;51.046;13.796;2024-02-16T12:29:09;21.20;;;15.70;;
62798;SDS011;48842;51.046;13.796;2024-02-16T12:31:37;21.07;;;14.43;;
62798;SDS011;48842;51.046;13.796;2024-02-16T12:34:05;20.37;;;14.87;;
62798;SDS011;48842;51.046;13.796;2024-02-16T12:36:32;18.93;;;15.47;;
62798;SDS011;48842;51.046;13.796;2024-02-16T12:38:58;18.73;;;14.40;;
62798;SDS011;48842;51.046;13.796;2024-02-16T12:41:23;17.20;;;14.10;;
62798;SDS011;48842;51.046;13.796;2024-02-16T12:43:48;22.67;;;15.77;;
62798;SDS011;48842;51.046;13.796;2024-02-16T12:46:14;19.30;;;14.73;;
62798;SDS011;48842;51.046;13.796;2024-02-16T12:48:39;19.33;;;13.87;;
62798;SDS011;48842;51.046;13.796;2024-02-16T12:51:04;25.50;;;15.93;;
62798;SDS011;48842;51.046;13.796;2024-02-16T12:53:30;16.67;;;13.90;;
62798;SDS011;48842;51.046;13.796;2024-02-16T12:56:05;18.77;;;13.53;;
62798;SDS011;48842;51.046;13.796;2024-02-16T12:58:34;20.60;;;14.63;;
62798;SDS011;48842;51.046;13.796;2024-02-16T13:00:59;16.77;;;13.53;;
62798;SDS011;48842;51.046;13.796;2024-02-16T13:03:25;20.57;;;13.87;;
62798;SDS011;48842;51.046;13.796;2024-02-16T13:05:50;16.00;;;13.70;;
62798;SDS011;48842;51.046;13.796;2024-02-16T13:08:16;17.10;;;11.80;;
62798;SDS011;48842;51.046;13.796;2024-02-16T13:10:41;18.23;;;11.30;;
62798;SDS011;48842;51.046;13.796;2024-02-16T13:13:07;12.90;;;11.27;;
62798;SDS011;48842;51.046;13.796;2024-02-16T13:15:32;12.80;;;10.00;;
62798;SDS011;48842;51.046;13.796;2024-02-16T13:17:57;13.83;;;11.67;;
62798;SDS011;48842;51.046;13.796;2024-02-16T13:20:24;14.10;;;11.77;;
62798;SDS011;48842;51.046;13.796;2024-02-16T13:22:50;19.93;;;11.33;;
62798;SDS011;48842;51.046;13.796;2024-02-16T13:25:15;12.97;;;11.57;;
62798;SDS011;48842;51.046;13.796;2024-02-16T13:27:40;15.10;;;11.70;;
62798;SDS011;48842;51.046;13.796;2024-02-16T13:30:06;17.03;;;12.87;;
62798;SDS011;48842;51.046;13.796;2024-02-16T13:32:32;14.80;;;12.50;;
62798;SDS011;48842;51.046;13.796;2024-02-16T13:34:57;17.77;;;13.70;;
62798;SDS011;48842;51.046;13.796;2024-02-16T13:37:24;15.53;;;12.60;;
62798;SDS011;48842;51.046;13.796;2024-02-16T13:39:49;15.17;;;12.47;;
62798;SDS011;48842;51.046;13.796;2024-02-16T13:42:14;17.03;;;13.33;;
62798;SDS011;48842;51.046;13.796;2024-02-16T13:44:40;16.40;;;13.20;;
62798;SDS011;48842;51.046;13.796;2024-02-16T13:47:06;19.57;;;13.30;;
62798;SDS011;48842;51.046;13.796;2024-02-16T13:49:31;16.10;;;13.33;;
62798;SDS011;48842;51.046;13.796;2024-02-16T13:51:56;17.67;;;13.20;;
62798;SDS011;48842;51.046;13.796;2024-02-16T13:54:24;15.33;;;13.37;;
62798;SDS011;48842;51.046;13.796;2024-02-16T13:56:49;16.57;;;13.80;;
62798;SDS011;48842;51.046;13.796;2024-02-16T13:59:15;16.97;;;13.53;;
62798;SDS011;48842;51.046;13.796;2024-02-16T14:01:40;19.00;;;14.60;;
62798;SDS011;48842;51.046;13.796;2024-02-16T14:04:05;17.37;;;15.23;;
62798;SDS011;48842;51.046;13.796;2024-02-16T14:06:30;18.07;;;14.20;;
62798;SDS011;48842;51.046;13.796;2024-02-16T14:08:56;17.90;;;14.90;;
62798;SDS011;48842;51.046;13.796;2024-02-16T14:11:22;19.10;;;15.60;;
62798;SDS011;48842;51.046;13.796;2024-02-16T14:13:48;17.77;;;14.20;;